Time;durP1;ratioP1;P1;durP2;ratioP2;P2;SDS_P1;SDS_P2;PMS_P1;PMS_P2;Temp;Humidity;BMP_temperature;BMP_pressure;BME280_temperature;BME280_humidity;BME280_pressure;Samples;Min_cycle;Max_cycle;Signal;HPM_P1;HPM_P2
2021/07/06 00:00:33;;;;;;;2.87;1.40;;;19.60;92.10;;;;;;5055444;28;20174;-79
2021/07/06 00:02:58;;;;;;;1.70;1.07;;;19.60;91.90;;;;;;5055537;28;20177;-79
2021/07/06 00:05:24;;;;;;;3.50;1.40;;;19.60;91.70;;;;;;5055300;28;20173;-79
2021/07/06 00:07:51;;;;;;;3.20;1.13;;;19.60;91.40;;;;;;5055470;28;20176;-75
2021/07/06 00:10:19;;;;;;;2.70;1.00;;;19.60;91.80;;;;;;5055191;28;20177;-74
2021/07/06 00:12:44;;;;;;;2.33;1.10;;;19.60;91.40;;;;;;5055379;28;20649;-79
2021/07/06 00:15:13;;;;;;;2.20;1.00;;;19.60;91.10;;;;;;5054499;28;20195;-75
2021/07/06 00:17:39;;;;;;;3.03;1.03;;;19.60;90.10;;;;;;5055042;28;20252;-81
2021/07/06 00:20:10;;;;;;;3.10;1.10;;;19.40;91.80;;;;;;5054875;28;20165;-75
2021/07/06 00:22:37;;;;;;;1.63;1.10;;;19.50;91.30;;;;;;5054329;28;20314;-79
2021/07/06 00:25:05;;;;;;;1.03;0.80;;;19.50;91.50;;;;;;5053859;28;20217;-80
2021/07/06 00:27:31;;;;;;;3.50;1.10;;;19.50;91.60;;;;;;5054302;28;20259;-81
2021/07/06 00:29:57;;;;;;;2.17;1.10;;;19.50;92.20;;;;;;5054262;28;20181;-81
2021/07/06 00:32:22;;;;;;;2.13;1.10;;;19.60;91.60;;;;;;5054447;28;20640;-80
2021/07/06 00:34:49;;;;;;;2.00;1.20;;;19.70;91.00;;;;;;5055266;28;20175;-78
2021/07/06 00:37:15;;;;;;;1.60;1.00;;;19.70;90.60;;;;;;5054700;28;20621;-76
2021/07/06 00:39:42;;;;;;;2.83;1.13;;;19.70;90.70;;;;;;5055574;28;20256;-79
2021/07/06 00:42:09;;;;;;;2.27;0.90;;;19.70;90.30;;;;;;5054691;28;20179;-78
2021/07/06 00:44:34;;;;;;;2.03;1.00;;;19.80;88.80;;;;;;5053588;28;20635;-82
2021/07/06 00:47:01;;;;;;;1.67;1.10;;;19.80;87.80;;;;;;5054127;28;20241;-75
2021/07/06 00:49:27;;;;;;;1.57;1.17;;;19.70;90.00;;;;;;5054091;28;20173;-81
2021/07/06 00:51:52;;;;;;;2.13;1.10;;;19.70;90.10;;;;;;5053875;28;20234;-81
2021/07/06 00:54:18;;;;;;;1.63;1.17;;;19.70;89.00;;;;;;5054073;28;20177;-75
2021/07/06 00:56:44;;;;;;;1.93;1.13;;;19.70;90.10;;;;;;5054118;28;20175;-79
2021/07/06 00:59:12;;;;;;;1.50;1.20;;;19.70;89.70;;;;;;5053649;28;20177;-81
2021/07/06 01:01:37;;;;;;;3.33;1.00;;;19.80;88.20;;;;;;5054075;28;20172;-74
2021/07/06 01:04:03;;;;;;;2.90;1.03;;;19.90;88.50;;;;;;5053657;28;20204;-80
2021/07/06 01:06:29;;;;;;;2.40;1.00;;;19.90;88.80;;;;;;5069313;28;20173;-80
2021/07/06 01:08:55;;;;;;;2.17;1.10;;;19.80;87.10;;;;;;5068674;28;20752;-80
2021/07/06 01:11:21;;;;;;;3.80;1.13;;;19.80;87.20;;;;;;5070696;28;20204;-77
2021/07/06 01:13:47;;;;;;;3.23;1.10;;;19.80;86.70;;;;;;5068971;28;20180;-77
2021/07/06 01:16:13;;;;;;;1.37;0.90;;;19.90;86.90;;;;;;5056033;28;20174;-80
2021/07/06 01:18:39;;;;;;;3.07;1.23;;;20.00;85.50;;;;;;5055015;28;20239;-80
2021/07/06 01:21:06;;;;;;;2.70;1.00;;;19.90;84.80;;;;;;5053999;28;20751;-79
2021/07/06 01:23:34;;;;;;;1.47;0.80;;;20.00;83.20;;;;;;5054013;28;20212;-81
2021/07/06 01:26:05;;;;;;;2.63;1.13;;;19.90;82.90;;;;;;5054050;28;20626;-81
2021/07/06 01:28:32;;;;;;;1.80;1.10;;;19.90;84.10;;;;;;5053688;28;20251;-82
2021/07/06 01:30:58;;;;;;;3.33;1.20;;;20.00;83.60;;;;;;5053930;28;20628;-81
2021/07/06 01:33:28;;;;;;;4.17;1.10;;;19.90;82.80;;;;;;5053775;28;20250;-80
2021/07/06 01:35:57;;;;;;;2.30;0.97;;;19.80;84.70;;;;;;5052971;28;20521;-76
2021/07/06 01:38:23;;;;;;;1.43;1.13;;;19.80;83.30;;;;;;5053303;28;20740;-81
2021/07/06 01:40:49;;;;;;;1.43;1.00;;;19.80;84.70;;;;;;5053203;28;20170;-80
2021/07/06 01:43:15;;;;;;;1.80;1.00;;;19.80;84.00;;;;;;5052982;28;20200;-80
2021/07/06 01:45:41;;;;;;;3.20;1.20;;;19.80;83.30;;;;;;5053255;28;20170;-76
2021/07/06 01:48:07;;;;;;;3.20;1.50;;;19.90;84.90;;;;;;5052750;28;20662;-74
2021/07/06 01:50:39;;;;;;;1.57;1.20;;;19.90;84.10;;;;;;5053077;28;20633;-75
2021/07/06 01:53:07;;;;;;;2.33;1.20;;;19.80;83.40;;;;;;5051864;28;20174;-81
2021/07/06 01:55:42;;;;;;;2.07;1.10;;;19.90;83.20;;;;;;5053389;28;20712;-80
2021/07/06 01:58:14;;;;;;;4.17;1.80;;;19.90;82.90;;;;;;5053004;28;20170;-81
2021/07/06 02:00:44;;;;;;;4.30;1.33;;;19.80;83.20;;;;;;5053100;28;20208;-74
2021/07/06 02:03:11;;;;;;;2.77;1.40;;;19.80;84.20;;;;;;5053116;28;20275;-80
2021/07/06 02:05:43;;;;;;;3.13;1.30;;;19.80;84.00;;;;;;5052927;28;20257;-77
2021/07/06 02:08:11;;;;;;;2.70;1.40;;;19.90;83.10;;;;;;5053080;28;20172;-80
2021/07/06 02:10:38;;;;;;;3.77;1.13;;;19.80;84.70;;;;;;5053007;28;20165;-79
2021/07/06 02:13:09;;;;;;;3.20;1.57;;;19.90;83.70;;;;;;5053008;28;20199;-81
2021/07/06 02:15:36;;;;;;;5.20;1.60;;;19.70;86.20;;;;;;5053063;28;20319;-80
2021/07/06 02:18:02;;;;;;;2.73;1.33;;;19.90;86.20;;;;;;5052728;28;20173;-79
2021/07/06 02:20:28;;;;;;;2.97;1.27;;;19.80;85.40;;;;;;5053064;28;20664;-78
2021/07/06 02:22:54;;;;;;;3.63;1.37;;;19.80;86.40;;;;;;5054190;28;20347;-81
2021/07/06 02:25:21;;;;;;;2.43;1.40;;;19.70;87.70;;;;;;5052957;28;20225;-81
2021/07/06 02:27:48;;;;;;;3.57;1.33;;;19.70;89.60;;;;;;5055727;28;20241;-79
2021/07/06 02:30:17;;;;;;;3.40;1.37;;;19.60;90.80;;;;;;5069472;28;20177;-75
2021/07/06 02:32:43;;;;;;;5.10;1.50;;;19.60;91.50;;;;;;5068366;28;20189;-73
2021/07/06 02:35:10;;;;;;;2.20;1.30;;;19.60;91.50;;;;;;5072268;28;20184;-75
2021/07/06 02:37:39;;;;;;;2.37;1.20;;;19.60;91.90;;;;;;5072015;28;20165;-74
2021/07/06 02:40:07;;;;;;;5.00;1.50;;;19.60;92.20;;;;;;5069535;28;20147;-75
2021/07/06 02:42:35;;;;;;;5.43;1.47;;;19.80;91.20;;;;;;5073008;28;20188;-73
2021/07/06 02:45:06;;;;;;;3.93;1.70;;;19.70;90.50;;;;;;5062449;28;20284;-77
2021/07/06 02:47:31;;;;;;;4.23;1.60;;;19.80;90.00;;;;;;5058370;28;20588;-82
2021/07/06 02:49:57;;;;;;;1.80;1.33;;;19.80;89.50;;;;;;5059837;28;20245;-74
2021/07/06 02:52:23;;;;;;;2.80;1.43;;;19.80;88.40;;;;;;5061296;28;20245;-79
2021/07/06 02:54:48;;;;;;;2.57;1.27;;;19.70;89.90;;;;;;5064807;28;20253;-79
2021/07/06 02:57:34;;;;;;;4.23;1.40;;;19.60;90.70;;;;;;5063875;28;20248;-73
2021/07/06 03:00:21;;;;;;;3.23;1.27;;;19.70;90.70;;;;;;5062753;28;20212;-78
2021/07/06 03:02:53;;;;;;;4.80;1.40;;;19.50;90.90;;;;;;5058535;28;20191;-82
2021/07/06 03:05:22;;;;;;;3.90;1.50;;;19.50;90.70;;;;;;5056610;28;20166;-80
2021/07/06 03:07:48;;;;;;;3.80;1.43;;;19.50;90.70;;;;;;5062404;28;20146;-73
2021/07/06 03:10:16;;;;;;;4.77;1.57;;;19.40;91.40;;;;;;5074463;28;20146;-72
2021/07/06 03:12:44;;;;;;;3.47;1.50;;;19.50;91.00;;;;;;5074697;28;20180;-75
2021/07/06 03:15:12;;;;;;;2.77;1.57;;;19.50;91.50;;;;;;5060084;28;20169;-74
2021/07/06 03:17:38;;;;;;;4.07;1.40;;;19.50;91.70;;;;;;5057948;28;20243;-73
2021/07/06 03:20:15;;;;;;;4.47;1.47;;;19.40;92.00;;;;;;5056666;28;20203;-82
2021/07/06 03:22:43;;;;;;;2.13;1.30;;;19.40;91.90;;;;;;5056095;28;20539;-74
2021/07/06 03:25:13;;;;;;;5.27;1.70;;;19.40;91.70;;;;;;5055985;28;20291;-75
2021/07/06 03:27:40;;;;;;;4.37;1.50;;;19.40;92.10;;;;;;5055957;28;20192;-79
2021/07/06 03:30:07;;;;;;;3.33;1.33;;;19.40;92.30;;;;;;5055844;28;20344;-80
2021/07/06 03:32:33;;;;;;;3.60;1.50;;;19.30;92.40;;;;;;5055984;28;20716;-77
2021/07/06 03:35:01;;;;;;;3.13;1.53;;;19.40;92.60;;;;;;5056254;28;20165;-81
2021/07/06 03:37:26;;;;;;;4.93;1.60;;;19.50;92.30;;;;;;5057407;28;20582;-80
2021/07/06 03:39:52;;;;;;;5.57;1.73;;;19.40;92.20;;;;;;5062308;28;20165;-78
2021/07/06 03:42:18;;;;;;;5.13;1.70;;;19.40;92.80;;;;;;5066631;28;20161;-80
2021/07/06 03:44:44;;;;;;;4.93;1.60;;;19.40;92.50;;;;;;5070114;28;20386;-75
2021/07/06 03:47:09;;;;;;;6.17;1.47;;;19.40;92.50;;;;;;5064082;28;20166;-80
2021/07/06 03:49:35;;;;;;;5.37;1.57;;;19.40;92.40;;;;;;5074105;28;20379;-73
2021/07/06 03:52:02;;;;;;;5.60;1.77;;;19.50;92.70;;;;;;5072068;28;20170;-74
2021/07/06 03:54:28;;;;;;;2.50;1.63;;;19.50;92.00;;;;;;5074702;28;20241;-75
2021/07/06 03:56:53;;;;;;;5.40;1.47;;;19.50;91.90;;;;;;5064294;28;20177;-80
2021/07/06 03:59:19;;;;;;;4.23;1.90;;;19.50;92.00;;;;;;5055865;28;20513;-80
2021/07/06 04:01:46;;;;;;;3.83;1.50;;;19.60;91.60;;;;;;5056898;28;20181;-80
2021/07/06 04:04:11;;;;;;;5.53;1.50;;;19.60;91.20;;;;;;5056816;28;20240;-81
2021/07/06 04:06:37;;;;;;;5.13;1.60;;;19.60;90.80;;;;;;5055689;28;20204;-80
2021/07/06 04:09:03;;;;;;;4.10;1.70;;;19.70;90.40;;;;;;5055030;28;20194;-80
2021/07/06 04:11:29;;;;;;;3.37;1.43;;;19.70;89.00;;;;;;5054918;28;20654;-80
2021/07/06 04:13:54;;;;;;;4.43;1.47;;;19.80;88.40;;;;;;5054846;28;20184;-80
2021/07/06 04:16:20;;;;;;;2.83;1.60;;;19.80;86.50;;;;;;5055689;28;20169;-80
2021/07/06 04:18:45;;;;;;;3.37;1.63;;;19.90;84.60;;;;;;5055242;28;20184;-78
2021/07/06 04:21:11;;;;;;;4.40;1.57;;;19.90;83.20;;;;;;5055585;28;20589;-81
2021/07/06 04:23:40;;;;;;;6.73;1.90;;;19.90;82.00;;;;;;5054975;28;20212;-74
2021/07/06 04:26:07;;;;;;;3.30;1.50;;;20.00;80.70;;;;;;5055201;28;20177;-81
2021/07/06 04:28:33;;;;;;;3.37;1.60;;;20.00;79.50;;;;;;5053533;28;20204;-76
2021/07/06 04:30:59;;;;;;;5.07;1.40;;;20.00;78.90;;;;;;5054358;28;20248;-74
2021/07/06 04:33:25;;;;;;;2.47;1.50;;;20.10;78.40;;;;;;5054458;28;20178;-75
2021/07/06 04:35:51;;;;;;;4.60;1.67;;;20.10;77.60;;;;;;5054611;28;20165;-81
2021/07/06 04:38:17;;;;;;;4.40;1.50;;;20.10;77.90;;;;;;5054429;28;20173;-80
2021/07/06 04:40:43;;;;;;;3.43;1.70;;;20.10;78.30;;;;;;5054191;28;20165;-78
2021/07/06 04:43:10;;;;;;;6.70;1.67;;;20.10;78.10;;;;;;5052747;28;20181;-81
2021/07/06 04:45:36;;;;;;;3.77;1.80;;;20.20;77.50;;;;;;5054142;28;20248;-80
2021/07/06 04:48:03;;;;;;;4.17;1.77;;;20.20;75.60;;;;;;5052939;28;20201;-80
2021/07/06 04:50:30;;;;;;;2.60;1.63;;;20.20;74.60;;;;;;5054023;28;20177;-81
2021/07/06 04:52:56;;;;;;;4.00;2.00;;;20.10;75.20;;;;;;5054225;28;20169;-80
2021/07/06 04:55:22;;;;;;;4.53;1.63;;;20.10;74.80;;;;;;5053969;28;20172;-79
2021/07/06 04:57:48;;;;;;;4.40;1.70;;;20.20;74.60;;;;;;5054491;28;20509;-80
2021/07/06 05:00:17;;;;;;;7.90;2.07;;;20.10;73.10;;;;;;5054031;28;20652;-78
2021/07/06 05:02:43;;;;;;;3.47;1.60;;;20.20;73.10;;;;;;5053957;28;20234;-78
2021/07/06 05:05:10;;;;;;;5.83;2.00;;;20.20;72.10;;;;;;5053818;28;20208;-77
2021/07/06 05:07:36;;;;;;;6.67;1.53;;;20.20;70.80;;;;;;5053775;28;20180;-79
2021/07/06 05:10:08;;;;;;;2.77;1.77;;;20.20;69.90;;;;;;5052812;28;20177;-80
2021/07/06 05:12:34;;;;;;;3.33;1.70;;;20.20;70.40;;;;;;5053378;28;20245;-82
2021/07/06 05:15:00;;;;;;;6.60;1.87;;;20.20;69.80;;;;;;5053980;28;20251;-75
2021/07/06 05:17:26;;;;;;;7.53;1.80;;;20.10;68.30;;;;;;5054053;28;20169;-78
2021/07/06 05:19:51;;;;;;;5.83;1.80;;;20.30;67.80;;;;;;5053970;28;20185;-81
2021/07/06 05:22:17;;;;;;;6.13;2.30;;;20.10;66.40;;;;;;5054101;28;20638;-80
2021/07/06 05:24:43;;;;;;;5.77;2.30;;;20.10;63.60;;;;;;5053674;28;20288;-76
2021/07/06 05:27:09;;;;;;;6.10;1.80;;;20.10;60.10;;;;;;5053071;28;20178;-80
2021/07/06 05:29:35;;;;;;;5.83;1.50;;;20.10;60.70;;;;;;5053261;28;20238;-73
2021/07/06 05:32:01;;;;;;;3.87;1.53;;;20.10;59.20;;;;;;5052099;28;20200;-78
2021/07/06 05:34:26;;;;;;;2.90;1.33;;;20.10;57.50;;;;;;5053693;28;20227;-82
2021/07/06 05:36:53;;;;;;;3.93;1.37;;;20.10;56.00;;;;;;5065411;28;20543;-77
2021/07/06 05:39:19;;;;;;;4.03;1.60;;;20.10;54.10;;;;;;5059478;28;20161;-80
2021/07/06 05:41:46;;;;;;;3.73;1.63;;;20.10;52.70;;;;;;5054819;28;20187;-82
2021/07/06 05:44:13;;;;;;;4.77;1.73;;;20.20;50.70;;;;;;5061488;28;20339;-74
2021/07/06 05:46:39;;;;;;;6.27;1.70;;;20.30;44.80;;;;;;5054166;28;20166;-82
2021/07/06 05:49:05;;;;;;;3.47;1.50;;;20.30;41.40;;;;;;5053371;28;20310;-81
2021/07/06 05:51:30;;;;;;;4.63;1.50;;;20.10;27.40;;;;;;5053429;28;20629;-80
2021/07/06 05:53:56;;;;;;;4.47;1.03;;;20.10;19.00;;;;;;5053145;28;20176;-75
2021/07/06 05:56:22;;;;;;;3.43;1.43;;;19.90;12.80;;;;;;5053331;28;20248;-79
2021/07/06 05:58:48;;;;;;;3.63;1.00;;;20.00;10.60;;;;;;5053739;28;20695;-82
2021/07/06 06:01:14;;;;;;;2.87;1.30;;;19.90;10.40;;;;;;5053177;28;20248;-75
2021/07/06 06:03:40;;;;;;;2.30;1.30;;;19.80;10.60;;;;;;5052707;28;20200;-74
2021/07/06 06:06:08;;;;;;;2.80;1.00;;;19.80;8.80;;;;;;5053137;28;20180;-76
2021/07/06 06:08:35;;;;;;;5.80;1.30;;;19.70;7.10;;;;;;5052969;28;20177;-77
2021/07/06 06:11:02;;;;;;;3.50;1.10;;;19.70;3.40;;;;;;5052664;28;20235;-78
2021/07/06 06:13:28;;;;;;;5.70;1.37;;;19.50;7.10;;;;;;5052948;28;20191;-76
2021/07/06 06:15:53;;;;;;;3.30;1.13;;;19.50;6.50;;;;;;5052930;28;20633;-80
2021/07/06 06:18:19;;;;;;;4.20;1.20;;;19.50;8.50;;;;;;5053194;28;20298;-81
2021/07/06 06:20:45;;;;;;;6.67;1.70;;;19.50;6.50;;;;;;5053051;28;20173;-80
2021/07/06 06:23:11;;;;;;;2.87;1.00;;;19.40;7.90;;;;;;5055953;28;20193;-80
2021/07/06 06:25:37;;;;;;;4.50;1.00;;;19.30;7.90;;;;;;5056760;28;20546;-81
2021/07/06 06:28:03;;;;;;;4.50;1.47;;;19.20;11.60;;;;;;5056871;28;20191;-77
2021/07/06 06:30:28;;;;;;;6.73;2.73;;;19.30;9.00;;;;;;5057236;28;20280;-81
2021/07/06 06:32:55;;;;;;;4.63;1.17;;;19.30;6.50;;;;;;5056925;28;20205;-77
2021/07/06 06:35:22;;;;;;;4.20;1.30;;;19.20;9.80;;;;;;5057707;28;20193;-78
2021/07/06 06:37:50;;;;;;;4.00;1.20;;;19.20;10.00;;;;;;5066059;28;20276;-77
2021/07/06 06:40:16;;;;;;;4.30;1.17;;;19.20;13.90;;;;;;5073554;28;20197;-73
2021/07/06 06:42:42;;;;;;;3.47;1.30;;;19.20;12.00;;;;;;5070621;28;20164;-73
2021/07/06 06:45:10;;;;;;;6.63;1.23;;;19.20;12.50;;;;;;5072850;28;20283;-73
2021/07/06 06:47:37;;;;;;;3.17;1.60;;;19.30;6.50;;;;;;5068662;28;20183;-81
2021/07/06 06:50:07;;;;;;;4.37;1.20;;;19.20;8.20;;;;;;5062670;28;20728;-73
2021/07/06 06:52:32;;;;;;;4.60;1.13;;;19.20;1.00;;;;;;5069443;28;20613;-81
2021/07/06 06:54:58;;;;;;;6.70;1.40;;;19.20;1.00;;;;;;5062717;28;20180;-78
2021/07/06 06:57:27;;;;;;;4.30;1.10;;;19.40;1.00;;;;;;5056314;28;20181;-77
2021/07/06 06:59:53;;;;;;;6.17;1.27;;;19.40;1.00;;;;;;5055066;28;20573;-79
2021/07/06 07:02:28;;;;;;;5.53;1.07;;;19.50;1.00;;;;;;5056318;28;20173;-80
2021/07/06 07:04:55;;;;;;;5.60;1.23;;;19.60;1.00;;;;;;5056626;28;20219;-82
2021/07/06 07:07:22;;;;;;;6.17;1.17;;;19.60;1.00;;;;;;5056401;28;20659;-81
2021/07/06 07:09:49;;;;;;;7.03;1.43;;;19.60;1.00;;;;;;5056367;28;20164;-80
2021/07/06 07:12:15;;;;;;;9.70;1.50;;;19.70;1.00;;;;;;5055840;28;20645;-80
2021/07/06 07:14:42;;;;;;;7.87;1.77;;;19.70;1.00;;;;;;5056131;28;20637;-80
2021/07/06 07:17:08;;;;;;;6.77;1.43;;;19.60;1.00;;;;;;5056360;28;20176;-82
2021/07/06 07:19:34;;;;;;;6.93;1.50;;;19.60;1.00;;;;;;5060216;28;20189;-76
2021/07/06 07:22:01;;;;;;;5.10;1.00;;;19.50;1.00;;;;;;5060995;28;20157;-79
2021/07/06 07:24:28;;;;;;;6.80;1.20;;;19.50;1.00;;;;;;5059173;28;20216;-81
2021/07/06 07:26:54;;;;;;;6.20;1.30;;;19.60;1.00;;;;;;5057827;28;20266;-81
2021/07/06 07:29:20;;;;;;;8.50;2.00;;;19.60;1.00;;;;;;5056956;28;20649;-81
2021/07/06 07:31:46;;;;;;;3.13;1.27;;;19.80;1.00;;;;;;5057433;28;20235;-79
2021/07/06 07:34:11;;;;;;;7.83;1.73;;;19.90;1.00;;;;;;5056809;28;20165;-76
2021/07/06 07:36:38;;;;;;;11.67;1.57;;;19.90;1.00;;;;;;5056715;28;20509;-75
2021/07/06 07:39:04;;;;;;;8.53;1.87;;;19.80;1.00;;;;;;5057369;28;20488;-83
2021/07/06 07:41:31;;;;;;;5.50;1.50;;;19.70;1.00;;;;;;5056204;28;20172;-81
2021/07/06 07:43:56;;;;;;;6.07;1.70;;;19.80;1.00;;;;;;5056063;28;20212;-79
2021/07/06 07:46:23;;;;;;;6.47;1.77;;;19.80;1.00;;;;;;5056528;28;20170;-80
2021/07/06 07:48:48;;;;;;;6.17;1.37;;;20.00;1.00;;;;;;5057296;28;20675;-80
2021/07/06 07:51:15;;;;;;;5.30;1.43;;;20.10;1.00;;;;;;5057544;28;20161;-80
2021/07/06 07:53:42;;;;;;;5.30;1.80;;;20.20;1.00;;;;;;5056049;28;20577;-80
2021/07/06 07:56:08;;;;;;;9.03;2.10;;;20.30;1.00;;;;;;5055923;28;20165;-82
2021/07/06 07:58:34;;;;;;;4.40;1.63;;;20.50;1.00;;;;;;5055995;28;20180;-80
2021/07/06 08:00:59;;;;;;;4.67;1.40;;;20.60;1.00;;;;;;5056796;28;20634;-83
2021/07/06 08:03:25;;;;;;;4.97;1.53;;;20.60;1.00;;;;;;5056687;28;20196;-77
2021/07/06 08:05:51;;;;;;;9.07;1.63;;;20.60;1.00;;;;;;5056196;28;20184;-80
2021/07/06 08:08:17;;;;;;;4.90;1.20;;;20.60;1.00;;;;;;5054982;28;20238;-82
2021/07/06 08:10:43;;;;;;;10.40;1.67;;;20.70;1.00;;;;;;5056580;28;20220;-81
2021/07/06 08:13:09;;;;;;;7.47;1.57;;;20.70;1.00;;;;;;5056498;28;20261;-81
2021/07/06 08:15:36;;;;;;;6.13;1.50;;;20.80;1.00;;;;;;5055563;28;20176;-79
2021/07/06 08:18:02;;;;;;;8.30;1.70;;;21.10;1.00;;;;;;5055750;28;20733;-79
2021/07/06 08:20:28;;;;;;;7.17;1.40;;;21.10;1.00;;;;;;5054526;28;20166;-81
2021/07/06 08:22:56;;;;;;;6.67;1.60;;;21.10;1.00;;;;;;5056848;28;20188;-80
2021/07/06 08:25:25;;;;;;;5.27;1.23;;;20.90;1.00;;;;;;5056194;28;20201;-74
2021/07/06 08:27:50;;;;;;;10.17;2.03;;;20.90;1.00;;;;;;5055846;28;20743;-79
2021/07/06 08:30:16;;;;;;;8.10;1.70;;;20.50;1.00;;;;;;5054628;28;20184;-78
2021/07/06 08:32:42;;;;;;;10.63;1.90;;;20.20;1.00;;;;;;5055217;28;20211;-77
2021/07/06 08:35:10;;;;;;;10.33;1.73;;;20.00;99.90;;;;;;5056266;28;20624;-80
2021/07/06 08:37:36;;;;;;;9.73;1.93;;;19.90;99.90;;;;;;5056518;28;20168;-75
2021/07/06 08:40:04;;;;;;;9.33;1.80;;;19.80;99.90;;;;;;5056232;28;20228;-77
2021/07/06 08:42:31;;;;;;;9.17;1.67;;;19.80;99.90;;;;;;5056112;28;20165;-76
2021/07/06 08:44:57;;;;;;;6.73;1.70;;;19.80;99.90;;;;;;5052912;28;20703;-73
2021/07/06 08:47:23;;;;;;;11.87;1.83;;;19.80;99.90;;;;;;5055200;28;20172;-78
2021/07/06 08:49:51;;;;;;;6.60;1.50;;;19.80;99.90;;;;;;5055120;28;20295;-75
2021/07/06 08:52:18;;;;;;;5.27;1.70;;;19.80;99.90;;;;;;5060019;28;20169;-80
2021/07/06 08:54:47;;;;;;;10.53;2.23;;;19.80;99.90;;;;;;5059898;28;20213;-81
2021/07/06 08:57:13;;;;;;;11.10;2.60;;;19.80;99.90;;;;;;5056608;28;20259;-80
2021/07/06 08:59:40;;;;;;;6.20;1.63;;;19.70;99.90;;;;;;5055417;28;20215;-74
2021/07/06 09:02:12;;;;;;;10.73;1.93;;;19.80;99.90;;;;;;5057167;28;20177;-76
2021/07/06 09:04:51;;;;;;;8.97;2.50;;;19.90;99.90;;;;;;5056352;28;20207;-81
2021/07/06 09:07:18;;;;;;;6.70;2.07;;;19.90;99.90;;;;;;5057094;28;20252;-78
2021/07/06 09:09:44;;;;;;;11.67;2.13;;;20.00;99.90;;;;;;5057420;28;20447;-75
2021/07/06 09:12:12;;;;;;;9.67;1.90;;;20.10;99.90;;;;;;5057634;28;20173;-75
2021/07/06 09:14:44;;;;;;;8.83;1.93;;;20.20;99.90;;;;;;5056800;28;20172;-77
2021/07/06 09:17:15;;;;;;;6.77;1.83;;;20.10;99.90;;;;;;5056552;28;20189;-80
2021/07/06 09:19:43;;;;;;;8.30;2.07;;;20.00;1.00;;;;;;5056507;28;20173;-81
2021/07/06 09:22:21;;;;;;;5.23;1.60;;;19.80;1.00;;;;;;5056345;28;20223;-80
2021/07/06 09:25:03;;;;;;;7.03;2.30;;;19.70;1.00;;;;;;5054396;28;20685;-76
2021/07/06 09:27:30;;;;;;;9.63;2.30;;;19.80;1.00;;;;;;5054559;28;20173;-76
2021/07/06 09:30:18;;;;;;;11.00;1.93;;;20.00;1.00;;;;;;5053919;28;20184;-81
2021/07/06 09:32:52;;;;;;;8.10;2.03;;;20.30;99.90;;;;;;5054174;28;20176;-77
2021/07/06 09:35:23;;;;;;;9.03;2.03;;;20.50;99.90;;;;;;5054199;28;20174;-78
2021/07/06 09:37:53;;;;;;;7.07;1.83;;;20.60;99.90;;;;;;5053725;28;20173;-77
2021/07/06 09:40:34;;;;;;;8.37;2.30;;;20.40;99.90;;;;;;5053366;28;20168;-80
2021/07/06 09:43:26;;;;;;;6.03;1.63;;;20.50;99.90;;;;;;5053869;28;20173;-81
2021/07/06 09:46:06;;;;;;;8.63;2.40;;;20.50;99.90;;;;;;5054641;28;20197;-76
2021/07/06 09:48:34;;;;;;;11.03;2.37;;;20.60;99.90;;;;;;5052667;28;20571;-81
2021/07/06 09:51:29;;;;;;;8.57;2.00;;;20.80;99.90;;;;;;5053250;28;20211;-82
2021/07/06 09:53:55;;;;;;;9.63;1.70;;;21.10;1.00;;;;;;5044383;28;20193;-80
2021/07/06 09:56:24;;;;;;;8.73;2.17;;;21.10;99.90;;;;;;5052493;28;20173;-76
2021/07/06 09:58:49;;;;;;;10.53;1.80;;;20.90;1.00;;;;;;5053613;28;20220;-77
2021/07/06 10:01:15;;;;;;;3.63;1.53;;;20.80;63.30;;;;;;5052908;28;20177;-79
2021/07/06 10:03:41;;;;;;;6.77;1.80;;;20.90;1.00;;;;;;5053675;28;20342;-80
2021/07/06 10:06:07;;;;;;;6.17;1.50;;;21.00;1.00;;;;;;5053294;28;20638;-79
2021/07/06 10:08:34;;;;;;;8.73;1.90;;;21.00;99.90;;;;;;5053579;28;20194;-80
2021/07/06 10:11:00;;;;;;;7.00;1.60;;;21.00;99.90;;;;;;5053075;28;20248;-76
2021/07/06 10:13:26;;;;;;;7.90;1.80;;;21.00;1.00;;;;;;5053760;28;20177;-77
2021/07/06 10:15:53;;;;;;;6.27;1.77;;;21.00;1.00;;;;;;5053572;28;20170;-76
2021/07/06 10:18:20;;;;;;;6.60;1.90;;;21.00;1.00;;;;;;5053956;28;20205;-81
2021/07/06 10:20:46;;;;;;;9.63;1.80;;;21.10;99.90;;;;;;5054051;28;20248;-78
2021/07/06 10:23:11;;;;;;;7.67;1.60;;;21.00;99.90;;;;;;5052977;28;20224;-77
2021/07/06 10:25:37;;;;;;;10.53;2.27;;;21.00;1.00;;;;;;5053706;28;20255;-81
2021/07/06 10:28:07;;;;;;;6.90;1.87;;;21.00;1.00;;;;;;5052877;28;20178;-79
2021/07/06 10:30:44;;;;;;;5.33;1.83;;;20.90;1.00;;;;;;5053208;28;20167;-74
2021/07/06 10:33:27;;;;;;;9.50;1.97;;;20.90;1.00;;;;;;5052485;28;20985;-76
2021/07/06 10:35:53;;;;;;;10.73;2.87;;;20.70;1.00;;;;;;5053378;28;20176;-82
2021/07/06 10:38:31;;;;;;;8.93;2.03;;;20.60;1.00;;;;;;5054226;28;20162;-74
2021/07/06 10:41:03;;;;;;;7.03;1.87;;;20.50;63.70;;;;;;5055997;28;20175;-74
2021/07/06 10:43:31;;;;;;;8.10;1.60;;;20.40;99.90;;;;;;5060066;28;20218;-75
2021/07/06 10:46:19;;;;;;;5.40;1.63;;;20.40;99.90;;;;;;5062007;28;20165;-77
2021/07/06 10:48:46;;;;;;;8.83;1.73;;;20.40;99.90;;;;;;5062719;28;20162;-73
2021/07/06 10:51:33;;;;;;;6.23;1.47;;;20.40;99.90;;;;;;5062974;28;20173;-76
2021/07/06 10:54:07;;;;;;;9.33;1.60;;;20.50;99.90;;;;;;5063212;28;20169;-77
2021/07/06 10:56:38;;;;;;;4.37;1.70;;;20.50;99.90;;;;;;5061540;28;20157;-78
2021/07/06 10:59:05;;;;;;;9.07;1.87;;;20.40;99.90;;;;;;5058521;28;20172;-79
2021/07/06 11:01:37;;;;;;;5.93;1.50;;;20.40;99.90;;;;;;5058913;28;20166;-80
2021/07/06 11:04:03;;;;;;;10.10;2.07;;;20.70;99.90;;;;;;5059133;28;20189;-80
2021/07/06 11:06:47;;;;;;;5.70;1.77;;;20.80;99.90;;;;;;5059118;28;20201;-79
2021/07/06 11:09:34;;;;;;;9.20;1.97;;;21.00;91.60;;;;;;5055564;28;20206;-73
2021/07/06 11:12:18;;;;;;;7.27;2.00;;;21.00;99.80;;;;;;5055814;28;20537;-74
2021/07/06 11:14:50;;;;;;;7.83;1.60;;;21.10;14.70;;;;;;5055373;28;20734;-77
2021/07/06 11:17:32;;;;;;;7.30;1.60;;;21.20;1.00;;;;;;5056403;28;20212;-75
2021/07/06 11:20:10;;;;;;;6.77;1.87;;;21.20;1.00;;;;;;5055784;28;20702;-73
2021/07/06 11:22:46;;;;;;;9.13;1.80;;;21.20;1.00;;;;;;5055836;28;20182;-74
2021/07/06 11:25:37;;;;;;;6.00;1.67;;;21.30;1.00;;;;;;5056938;28;20211;-75
2021/07/06 11:28:12;;;;;;;9.17;1.70;;;21.40;1.00;;;;;;5055202;28;20177;-74
2021/07/06 11:30:44;;;;;;;11.03;1.70;;;21.40;1.00;;;;;;5056357;28;20165;-75
2021/07/06 11:33:17;;;;;;;8.93;2.17;;;21.50;1.00;;;;;;5057376;28;20167;-76
2021/07/06 11:35:57;;;;;;;5.93;2.03;;;21.50;1.00;;;;;;5055872;28;20159;-76
2021/07/06 11:38:28;;;;;;;7.50;1.80;;;21.50;1.00;;;;;;5057556;28;20169;-80
2021/07/06 11:41:00;;;;;;;10.40;2.00;;;21.40;1.00;;;;;;5057046;28;20176;-75
2021/07/06 11:43:29;;;;;;;8.20;1.90;;;21.40;99.90;;;;;;5056268;28;20159;-75
2021/07/06 11:46:00;;;;;;;6.70;1.67;;;21.20;1.00;;;;;;5057220;28;20179;-74
2021/07/06 11:48:27;;;;;;;4.43;1.40;;;21.10;49.50;;;;;;5057803;28;20166;-78
2021/07/06 11:50:55;;;;;;;7.67;1.47;;;21.00;99.90;;;;;;5055370;28;20173;-76
2021/07/06 11:53:25;;;;;;;8.03;1.70;;;20.90;99.90;;;;;;5055681;28;20181;-78
2021/07/06 11:55:52;;;;;;;6.57;1.47;;;20.90;99.90;;;;;;5055907;28;20173;-76
2021/07/06 11:58:22;;;;;;;5.73;2.00;;;20.80;99.90;;;;;;5056130;28;20170;-80
2021/07/06 12:00:50;;;;;;;8.13;2.10;;;20.70;99.90;;;;;;5056292;28;20237;-76
2021/07/06 12:03:27;;;;;;;7.43;1.60;;;20.60;99.90;;;;;;5062065;28;20165;-74
2021/07/06 12:05:57;;;;;;;4.07;1.60;;;20.60;99.90;;;;;;5057372;28;20212;-78
2021/07/06 12:08:28;;;;;;;6.60;1.47;;;20.70;99.90;;;;;;5055647;28;20170;-80
2021/07/06 12:10:55;;;;;;;4.97;1.30;;;20.60;99.90;;;;;;5056065;28;20180;-81
2021/07/06 12:13:21;;;;;;;5.60;1.70;;;20.60;99.90;;;;;;5055711;28;20173;-80
2021/07/06 12:15:49;;;;;;;7.03;2.17;;;20.60;99.90;;;;;;5056783;28;20177;-77
2021/07/06 12:18:15;;;;;;;9.33;1.67;;;20.60;99.90;;;;;;5056634;28;20161;-81
2021/07/06 12:20:56;;;;;;;6.53;1.80;;;20.50;1.00;;;;;;5054521;28;20166;-80
2021/07/06 12:23:28;;;;;;;8.10;1.53;;;20.40;1.00;;;;;;5054528;28;20228;-78
2021/07/06 12:25:56;;;;;;;8.47;2.03;;;20.40;1.00;;;;;;5054759;28;20566;-75
2021/07/06 12:28:22;;;;;;;7.77;1.70;;;20.30;1.00;;;;;;5054515;28;20192;-82
2021/07/06 12:31:17;;;;;;;8.40;1.67;;;20.30;1.00;;;;;;5054246;28;20592;-74
2021/07/06 12:33:44;;;;;;;7.40;1.80;;;20.20;1.00;;;;;;5054331;28;20248;-76
2021/07/06 12:36:10;;;;;;;8.57;1.77;;;20.30;1.00;;;;;;5054555;28;20865;-77
2021/07/06 12:38:36;;;;;;;6.90;1.70;;;20.30;1.00;;;;;;5054697;28;20608;-76
2021/07/06 12:41:16;;;;;;;9.63;1.97;;;20.50;1.00;;;;;;5054250;28;20276;-80
2021/07/06 12:43:42;;;;;;;5.97;1.37;;;20.70;1.00;;;;;;5054899;28;20192;-77
2021/07/06 12:46:09;;;;;;;5.63;1.40;;;20.80;99.90;;;;;;5054624;28;20176;-80
2021/07/06 12:48:35;;;;;;;4.77;1.10;;;20.90;99.90;;;;;;5054464;28;20169;-77
2021/07/06 12:51:10;;;;;;;4.23;1.60;;;20.90;99.90;;;;;;5054318;28;20177;-80
2021/07/06 12:53:36;;;;;;;7.90;1.50;;;21.10;16.30;;;;;;5054388;28;20226;-75
2021/07/06 12:56:26;;;;;;;6.33;1.77;;;21.30;1.00;;;;;;5053531;28;20166;-75